Heat Index [SAI AWOS/ASOS Display]_________FAA Disclaimer: "Not for use in aviation at this time______________" Untitled Document
Auglaize County Neil Armstrong Airport (AXV)
200
12:53
18/04/11
10
N/A
N/A
30.13
N/A
912
37(F), 3(C)
31(F), -1(C)
30 F
75%
BKN050
5
Haze
N/A
N/A
12:53 zulu Wind 200 at 10 Knots, Altimeter 30.13
METAR KAXV 111253Z AUTO 20010KT 5SM HZ BKN050 03/M01 A3013 A02
METAR:
FAA Disclaimer--Advisory Use ONLY, not for flight info-- 3/15/2018: Thank you for visiting the Neil Armstrong Airport Digital AWOS Page. Please contact the Airport Manager if you have any questions. 419-753-2810
INFO:
Wind Direction:
Wind Speed:
Wind Gust:
Wind Variable:
Altimeter:
Dens Alt:
Elev:
Temp:
Dwpt:
Wind Chill
Rel Humidity:
Ceiling:
Visibility:
Prsnt Wea:
PCPN:
Remarks:
NOTICE--Current weather data is more than 15 minutes old. The SAI AWOS/ASOS Display is inoperative at this time.
How to read the WebPage